Salem Airport

Current Flights

Departures
Number Departure To Airline
 TRJ532 05:55 +42  Chennai  TruJet
 2T532 05:55  Chennai  TruJet
 TRJ532 05:55  Chennai  TruJet
 TRJ532 05:55  Chennai  TruJet
Arrivals
Number Arrival From Airline
 2T531 05:35  Chennai  TruJet
 2T531 05:35  Chennai  TruJet
Info
Name: Salem Airport
Identifier:  SXV/VOSM
Local Time:  17. Jun 06:36
City
Flights per Day
2 flights
Distance: 266km (165mi)
Punctuality
93% (0 flights per day delayed)
Delay Average: 13 minutes
Current Weather
 34 C (Humidity: 46%)
  8kt (14km/h / 9mph) from 290°
  Scattered clouds at 10,000 feet (3,048 meter)
  7km (4 mi.)
No significant changes expected

 METAR VOSM 170600Z 29008KT 7000 SCT100 34/21 Q1009 NOSIG

Current Delays

Departures
N/A
Arrivals
N/A

Destinations

Top Destinations
Airport Flights
per week
Seats
per week
  Chennai (MAA) 6 416 0 59

Airlines & Planes

Top Airlines
Airline Flights
per Day
Seats
per Day
  TruJet 0 59
Top Plane Types
Model Flights Seats
ATR 76-500 0.8/day 59/day 59.53333333333333
ATR 76-600 0.1/day - 0